sensor_id;sensor_type;location;lat;lon;timestamp;P1;durP1;ratioP1;P2;durP2;ratioP2
31818;SDS011;18384;48.860;9.188;2023-07-24T00:01:39;18.73;;;7.57;;
31818;SDS011;18384;48.860;9.188;2023-07-24T00:04:06;14.15;;;6.85;;
31818;SDS011;18384;48.860;9.188;2023-07-24T00:06:32;14.87;;;7.12;;
31818;SDS011;18384;48.860;9.188;2023-07-24T00:08:58;18.05;;;6.93;;
31818;SDS011;18384;48.860;9.188;2023-07-24T00:11:24;15.20;;;6.90;;
31818;SDS011;18384;48.860;9.188;2023-07-24T00:13:50;14.02;;;6.70;;
31818;SDS011;18384;48.860;9.188;2023-07-24T00:16:16;14.32;;;7.32;;
31818;SDS011;18384;48.860;9.188;2023-07-24T00:18:43;16.10;;;6.53;;
31818;SDS011;18384;48.860;9.188;2023-07-24T00:21:12;14.02;;;7.12;;
31818;SDS011;18384;48.860;9.188;2023-07-24T00:23:38;15.48;;;7.68;;
31818;SDS011;18384;48.860;9.188;2023-07-24T00:28:30;11.40;;;6.87;;
31818;SDS011;18384;48.860;9.188;2023-07-24T00:30:57;13.90;;;7.15;;
31818;SDS011;18384;48.860;9.188;2023-07-24T00:33:24;11.50;;;6.85;;
31818;SDS011;18384;48.860;9.188;2023-07-24T00:35:50;13.80;;;6.50;;
31818;SDS011;18384;48.860;9.188;2023-07-24T00:38:19;16.70;;;7.20;;
31818;SDS011;18384;48.860;9.188;2023-07-24T00:40:46;15.70;;;6.93;;
31818;SDS011;18384;48.860;9.188;2023-07-24T00:43:12;18.95;;;7.18;;
31818;SDS011;18384;48.860;9.188;2023-07-24T00:45:38;14.43;;;7.62;;
31818;SDS011;18384;48.860;9.188;2023-07-24T00:48:04;16.55;;;7.07;;
31818;SDS011;18384;48.860;9.188;2023-07-24T00:50:30;21.23;;;6.82;;
31818;SDS011;18384;48.860;9.188;2023-07-24T00:52:56;11.50;;;6.95;;
31818;SDS011;18384;48.860;9.188;2023-07-24T00:55:23;13.77;;;7.25;;
31818;SDS011;18384;48.860;9.188;2023-07-24T00:57:49;17.98;;;7.40;;
31818;SDS011;18384;48.860;9.188;2023-07-24T01:00:15;11.50;;;6.72;;
31818;SDS011;18384;48.860;9.188;2023-07-24T01:02:42;13.93;;;8.40;;
31818;SDS011;18384;48.860;9.188;2023-07-24T01:05:09;11.40;;;6.60;;
31818;SDS011;18384;48.860;9.188;2023-07-24T01:07:39;13.68;;;6.80;;
31818;SDS011;18384;48.860;9.188;2023-07-24T01:10:05;16.98;;;6.68;;
31818;SDS011;18384;48.860;9.188;2023-07-24T01:12:39;13.88;;;7.45;;
31818;SDS011;18384;48.860;9.188;2023-07-24T01:15:36;11.77;;;6.87;;
31818;SDS011;18384;48.860;9.188;2023-07-24T01:18:08;12.63;;;7.03;;
31818;SDS011;18384;48.860;9.188;2023-07-24T01:20:40;13.10;;;7.25;;
31818;SDS011;18384;48.860;9.188;2023-07-24T01:23:29;14.98;;;6.90;;
31818;SDS011;18384;48.860;9.188;2023-07-24T01:26:20;12.02;;;6.82;;
31818;SDS011;18384;48.860;9.188;2023-07-24T01:28:49;12.93;;;7.68;;
31818;SDS011;18384;48.860;9.188;2023-07-24T01:33:42;12.02;;;7.05;;
31818;SDS011;18384;48.860;9.188;2023-07-24T01:36:10;11.25;;;7.12;;
31818;SDS011;18384;48.860;9.188;2023-07-24T01:38:37;17.95;;;7.18;;
31818;SDS011;18384;48.860;9.188;2023-07-24T01:41:04;12.40;;;6.90;;
31818;SDS011;18384;48.860;9.188;2023-07-24T01:45:57;14.95;;;6.93;;
31818;SDS011;18384;48.860;9.188;2023-07-24T01:48:23;12.63;;;6.97;;
31818;SDS011;18384;48.860;9.188;2023-07-24T01:50:49;11.68;;;6.82;;
31818;SDS011;18384;48.860;9.188;2023-07-24T01:53:16;17.05;;;7.32;;
31818;SDS011;18384;48.860;9.188;2023-07-24T01:55:42;15.07;;;7.18;;
31818;SDS011;18384;48.860;9.188;2023-07-24T01:58:08;15.27;;;6.93;;
31818;SDS011;18384;48.860;9.188;2023-07-24T02:00:34;17.77;;;7.72;;
31818;SDS011;18384;48.860;9.188;2023-07-24T02:03:00;12.02;;;7.37;;
31818;SDS011;18384;48.860;9.188;2023-07-24T02:05:26;14.15;;;7.57;;
31818;SDS011;18384;48.860;9.188;2023-07-24T02:07:52;11.30;;;6.87;;
31818;SDS011;18384;48.860;9.188;2023-07-24T02:10:18;15.32;;;7.20;;
31818;SDS011;18384;48.860;9.188;2023-07-24T02:12:44;13.32;;;6.82;;
31818;SDS011;18384;48.860;9.188;2023-07-24T02:15:11;13.95;;;6.78;;
31818;SDS011;18384;48.860;9.188;2023-07-24T02:17:37;14.23;;;7.10;;
31818;SDS011;18384;48.860;9.188;2023-07-24T02:20:04;14.27;;;7.53;;
31818;SDS011;18384;48.860;9.188;2023-07-24T02:22:32;12.98;;;7.00;;
31818;SDS011;18384;48.860;9.188;2023-07-24T02:27:29;13.20;;;6.87;;
31818;SDS011;18384;48.860;9.188;2023-07-24T02:29:59;13.00;;;6.97;;
31818;SDS011;18384;48.860;9.188;2023-07-24T02:32:26;11.90;;;6.82;;
31818;SDS011;18384;48.860;9.188;2023-07-24T02:34:52;15.23;;;7.40;;
31818;SDS011;18384;48.860;9.188;2023-07-24T02:37:19;12.52;;;6.82;;
31818;SDS011;18384;48.860;9.188;2023-07-24T02:39:45;10.68;;;6.57;;
31818;SDS011;18384;48.860;9.188;2023-07-24T02:42:11;11.77;;;6.65;;
31818;SDS011;18384;48.860;9.188;2023-07-24T02:44:37;13.82;;;6.85;;
31818;SDS011;18384;48.860;9.188;2023-07-24T02:47:04;12.85;;;6.90;;
31818;SDS011;18384;48.860;9.188;2023-07-24T02:49:30;13.25;;;6.78;;
31818;SDS011;18384;48.860;9.188;2023-07-24T02:51:57;13.30;;;6.47;;
31818;SDS011;18384;48.860;9.188;2023-07-24T02:54:23;15.68;;;6.95;;
31818;SDS011;18384;48.860;9.188;2023-07-24T02:56:51;14.48;;;7.20;;
31818;SDS011;18384;48.860;9.188;2023-07-24T02:59:17;15.23;;;6.68;;
31818;SDS011;18384;48.860;9.188;2023-07-24T03:01:44;12.15;;;6.90;;
31818;SDS011;18384;48.860;9.188;2023-07-24T03:04:10;15.13;;;7.30;;
31818;SDS011;18384;48.860;9.188;2023-07-24T03:06:36;17.83;;;7.65;;
31818;SDS011;18384;48.860;9.188;2023-07-24T03:09:02;15.32;;;7.90;;
31818;SDS011;18384;48.860;9.188;2023-07-24T03:11:28;12.20;;;7.82;;
31818;SDS011;18384;48.860;9.188;2023-07-24T03:13:54;12.55;;;7.00;;
31818;SDS011;18384;48.860;9.188;2023-07-24T03:16:20;14.52;;;7.43;;
31818;SDS011;18384;48.860;9.188;2023-07-24T03:18:46;12.88;;;7.20;;
31818;SDS011;18384;48.860;9.188;2023-07-24T03:21:12;16.95;;;8.30;;
31818;SDS011;18384;48.860;9.188;2023-07-24T03:23:39;14.73;;;7.68;;
31818;SDS011;18384;48.860;9.188;2023-07-24T03:26:05;17.65;;;7.50;;
31818;SDS011;18384;48.860;9.188;2023-07-24T03:28:31;14.07;;;7.07;;
31818;SDS011;18384;48.860;9.188;2023-07-24T03:30:57;13.70;;;7.15;;
31818;SDS011;18384;48.860;9.188;2023-07-24T03:33:23;15.50;;;7.68;;
31818;SDS011;18384;48.860;9.188;2023-07-24T03:35:49;16.45;;;8.07;;
31818;SDS011;18384;48.860;9.188;2023-07-24T03:38:15;13.80;;;7.45;;
31818;SDS011;18384;48.860;9.188;2023-07-24T03:40:41;16.70;;;7.45;;
31818;SDS011;18384;48.860;9.188;2023-07-24T03:43:07;12.00;;;6.85;;
31818;SDS011;18384;48.860;9.188;2023-07-24T03:45:34;17.12;;;7.87;;
31818;SDS011;18384;48.860;9.188;2023-07-24T03:48:00;18.35;;;7.55;;
31818;SDS011;18384;48.860;9.188;2023-07-24T03:50:26;13.48;;;7.30;;
31818;SDS011;18384;48.860;9.188;2023-07-24T03:52:54;15.50;;;7.60;;
31818;SDS011;18384;48.860;9.188;2023-07-24T03:55:20;15.60;;;7.60;;
31818;SDS011;18384;48.860;9.188;2023-07-24T03:57:46;11.32;;;6.70;;
31818;SDS011;18384;48.860;9.188;2023-07-24T04:00:13;13.80;;;7.50;;
31818;SDS011;18384;48.860;9.188;2023-07-24T04:02:39;13.82;;;7.85;;
31818;SDS011;18384;48.860;9.188;2023-07-24T04:05:05;12.80;;;7.90;;
31818;SDS011;18384;48.860;9.188;2023-07-24T04:09:57;12.65;;;7.32;;
31818;SDS011;18384;48.860;9.188;2023-07-24T04:12:23;14.77;;;7.03;;
31818;SDS011;18384;48.860;9.188;2023-07-24T04:14:50;13.48;;;7.70;;
31818;SDS011;18384;48.860;9.188;2023-07-24T04:17:16;14.07;;;8.07;;
31818;SDS011;18384;48.860;9.188;2023-07-24T04:19:42;13.95;;;7.30;;
31818;SDS011;18384;48.860;9.188;2023-07-24T04:22:08;17.45;;;8.07;;
31818;SDS011;18384;48.860;9.188;2023-07-24T04:24:34;12.90;;;7.65;;
31818;SDS011;18384;48.860;9.188;2023-07-24T04:27:00;17.30;;;8.13;;
31818;SDS011;18384;48.860;9.188;2023-07-24T04:29:27;14.75;;;7.55;;
31818;SDS011;18384;48.860;9.188;2023-07-24T04:31:53;16.17;;;7.32;;
31818;SDS011;18384;48.860;9.188;2023-07-24T04:34:19;12.77;;;7.65;;
31818;SDS011;18384;48.860;9.188;2023-07-24T04:36:45;16.52;;;8.07;;
31818;SDS011;18384;48.860;9.188;2023-07-24T04:39:11;13.07;;;8.10;;
31818;SDS011;18384;48.860;9.188;2023-07-24T04:41:37;18.95;;;7.85;;
31818;SDS011;18384;48.860;9.188;2023-07-24T04:44:03;15.32;;;7.28;;
31818;SDS011;18384;48.860;9.188;2023-07-24T04:46:30;12.50;;;7.45;;
31818;SDS011;18384;48.860;9.188;2023-07-24T04:48:56;16.77;;;7.68;;
31818;SDS011;18384;48.860;9.188;2023-07-24T04:51:22;14.87;;;7.35;;
31818;SDS011;18384;48.860;9.188;2023-07-24T04:53:48;17.30;;;7.47;;
31818;SDS011;18384;48.860;9.188;2023-07-24T04:56:14;13.82;;;7.78;;
31818;SDS011;18384;48.860;9.188;2023-07-24T04:58:40;13.35;;;8.10;;
31818;SDS011;18384;48.860;9.188;2023-07-24T05:01:06;14.25;;;7.10;;
31818;SDS011;18384;48.860;9.188;2023-07-24T05:03:32;13.80;;;7.12;;
31818;SDS011;18384;48.860;9.188;2023-07-24T05:05:58;17.42;;;8.40;;
31818;SDS011;18384;48.860;9.188;2023-07-24T05:08:25;13.98;;;7.30;;
31818;SDS011;18384;48.860;9.188;2023-07-24T05:10:54;13.48;;;7.68;;
31818;SDS011;18384;48.860;9.188;2023-07-24T05:13:22;15.25;;;7.85;;
31818;SDS011;18384;48.860;9.188;2023-07-24T05:15:48;12.88;;;6.93;;
31818;SDS011;18384;48.860;9.188;2023-07-24T05:20:46;12.32;;;6.95;;
31818;SDS011;18384;48.860;9.188;2023-07-24T05:23:14;15.23;;;7.65;;
31818;SDS011;18384;48.860;9.188;2023-07-24T05:25:40;11.93;;;6.55;;
31818;SDS011;18384;48.860;9.188;2023-07-24T05:28:06;15.02;;;7.10;;
31818;SDS011;18384;48.860;9.188;2023-07-24T05:30:32;16.37;;;7.00;;
31818;SDS011;18384;48.860;9.188;2023-07-24T05:35:24;13.27;;;7.35;;
31818;SDS011;18384;48.860;9.188;2023-07-24T05:37:51;13.38;;;7.57;;
31818;SDS011;18384;48.860;9.188;2023-07-24T05:40:17;14.52;;;7.65;;
31818;SDS011;18384;48.860;9.188;2023-07-24T05:42:43;15.15;;;7.35;;
31818;SDS011;18384;48.860;9.188;2023-07-24T05:45:09;15.43;;;8.23;;
31818;SDS011;18384;48.860;9.188;2023-07-24T05:49:05;24.45;;;8.48;;
31818;SDS011;18384;48.860;9.188;2023-07-24T05:51:31;18.42;;;8.02;;
31818;SDS011;18384;48.860;9.188;2023-07-24T05:53:57;16.60;;;8.32;;
31818;SDS011;18384;48.860;9.188;2023-07-24T05:56:23;17.42;;;8.30;;
31818;SDS011;18384;48.860;9.188;2023-07-24T05:58:49;14.13;;;7.80;;
31818;SDS011;18384;48.860;9.188;2023-07-24T06:03:41;21.45;;;8.32;;
31818;SDS011;18384;48.860;9.188;2023-07-24T06:06:07;17.20;;;8.75;;
31818;SDS011;18384;48.860;9.188;2023-07-24T06:08:33;21.77;;;8.23;;
31818;SDS011;18384;48.860;9.188;2023-07-24T06:11:00;18.00;;;8.18;;
31818;SDS011;18384;48.860;9.188;2023-07-24T06:13:26;27.20;;;8.93;;
31818;SDS011;18384;48.860;9.188;2023-07-24T06:15:52;17.35;;;9.07;;
31818;SDS011;18384;48.860;9.188;2023-07-24T06:18:18;20.98;;;8.05;;
31818;SDS011;18384;48.860;9.188;2023-07-24T06:23:10;18.67;;;8.90;;
31818;SDS011;18384;48.860;9.188;2023-07-24T06:25:36;14.93;;;7.90;;
31818;SDS011;18384;48.860;9.188;2023-07-24T06:28:03;15.15;;;7.87;;
31818;SDS011;18384;48.860;9.188;2023-07-24T06:30:29;16.20;;;7.78;;
31818;SDS011;18384;48.860;9.188;2023-07-24T06:32:55;19.92;;;8.20;;
31818;SDS011;18384;48.860;9.188;2023-07-24T06:35:21;19.50;;;7.62;;
31818;SDS011;18384;48.860;9.188;2023-07-24T06:37:47;14.70;;;7.57;;
31818;SDS011;18384;48.860;9.188;2023-07-24T06:40:13;12.57;;;7.15;;
31818;SDS011;18384;48.860;9.188;2023-07-24T06:42:39;14.87;;;7.82;;
31818;SDS011;18384;48.860;9.188;2023-07-24T06:47:32;23.08;;;8.52;;
31818;SDS011;18384;48.860;9.188;2023-07-24T06:49:59;13.20;;;7.00;;
31818;SDS011;18384;48.860;9.188;2023-07-24T06:52:25;20.25;;;7.72;;
31818;SDS011;18384;48.860;9.188;2023-07-24T06:54:51;14.98;;;7.75;;
31818;SDS011;18384;48.860;9.188;2023-07-24T06:57:17;17.80;;;7.57;;
31818;SDS011;18384;48.860;9.188;2023-07-24T06:59:43;13.65;;;8.00;;
31818;SDS011;18384;48.860;9.188;2023-07-24T07:02:09;18.37;;;7.78;;
31818;SDS011;18384;48.860;9.188;2023-07-24T07:04:35;19.40;;;8.13;;
31818;SDS011;18384;48.860;9.188;2023-07-24T07:07:01;13.07;;;8.05;;
31818;SDS011;18384;48.860;9.188;2023-07-24T07:09:27;18.20;;;7.28;;
31818;SDS011;18384;48.860;9.188;2023-07-24T07:11:54;22.23;;;7.25;;
31818;SDS011;18384;48.860;9.188;2023-07-24T07:14:20;13.40;;;7.00;;
31818;SDS011;18384;48.860;9.188;2023-07-24T07:16:46;14.68;;;7.65;;
31818;SDS011;18384;48.860;9.188;2023-07-24T07:19:13;20.45;;;7.43;;
31818;SDS011;18384;48.860;9.188;2023-07-24T07:21:39;14.15;;;6.95;;
31818;SDS011;18384;48.860;9.188;2023-07-24T07:24:05;20.92;;;7.60;;
31818;SDS011;18384;48.860;9.188;2023-07-24T07:26:31;13.73;;;7.22;;
31818;SDS011;18384;48.860;9.188;2023-07-24T07:28:58;15.05;;;8.25;;
31818;SDS011;18384;48.860;9.188;2023-07-24T07:31:24;13.68;;;7.22;;
31818;SDS011;18384;48.860;9.188;2023-07-24T07:33:50;13.60;;;7.15;;
31818;SDS011;18384;48.860;9.188;2023-07-24T07:36:17;21.58;;;7.00;;
31818;SDS011;18384;48.860;9.188;2023-07-24T07:38:43;15.80;;;7.80;;
31818;SDS011;18384;48.860;9.188;2023-07-24T07:41:09;12.40;;;7.18;;
31818;SDS011;18384;48.860;9.188;2023-07-24T07:46:02;17.70;;;7.05;;
31818;SDS011;18384;48.860;9.188;2023-07-24T07:50:55;15.95;;;7.47;;
31818;SDS011;18384;48.860;9.188;2023-07-24T07:53:21;15.93;;;7.80;;
31818;SDS011;18384;48.860;9.188;2023-07-24T07:55:54;11.57;;;6.80;;
31818;SDS011;18384;48.860;9.188;2023-07-24T07:58:25;13.13;;;7.55;;
31818;SDS011;18384;48.860;9.188;2023-07-24T08:00:51;12.70;;;6.80;;
31818;SDS011;18384;48.860;9.188;2023-07-24T08:03:17;14.98;;;7.53;;
31818;SDS011;18384;48.860;9.188;2023-07-24T08:08:09;17.90;;;7.95;;
31818;SDS011;18384;48.860;9.188;2023-07-24T08:10:38;14.87;;;7.25;;
31818;SDS011;18384;48.860;9.188;2023-07-24T08:13:05;14.48;;;7.80;;
31818;SDS011;18384;48.860;9.188;2023-07-24T08:15:36;17.87;;;7.68;;
31818;SDS011;18384;48.860;9.188;2023-07-24T08:18:03;17.05;;;8.02;;
31818;SDS011;18384;48.860;9.188;2023-07-24T08:20:29;13.70;;;7.22;;
31818;SDS011;18384;48.860;9.188;2023-07-24T08:22:56;16.40;;;7.90;;
31818;SDS011;18384;48.860;9.188;2023-07-24T08:25:22;14.73;;;7.62;;
31818;SDS011;18384;48.860;9.188;2023-07-24T08:27:48;16.65;;;7.15;;
31818;SDS011;18384;48.860;9.188;2023-07-24T08:30:14;13.95;;;7.72;;
31818;SDS011;18384;48.860;9.188;2023-07-24T08:35:06;16.55;;;7.95;;
31818;SDS011;18384;48.860;9.188;2023-07-24T08:37:33;14.63;;;7.53;;
31818;SDS011;18384;48.860;9.188;2023-07-24T08:39:59;15.68;;;7.22;;
31818;SDS011;18384;48.860;9.188;2023-07-24T08:42:25;16.12;;;8.18;;
31818;SDS011;18384;48.860;9.188;2023-07-24T08:44:51;13.98;;;6.87;;
31818;SDS011;18384;48.860;9.188;2023-07-24T08:47:19;15.98;;;8.02;;
31818;SDS011;18384;48.860;9.188;2023-07-24T08:49:47;15.60;;;7.90;;
31818;SDS011;18384;48.860;9.188;2023-07-24T08:54:39;15.93;;;8.52;;
31818;SDS011;18384;48.860;9.188;2023-07-24T08:59:32;16.00;;;7.87;;
31818;SDS011;18384;48.860;9.188;2023-07-24T09:01:59;16.52;;;8.77;;
31818;SDS011;18384;48.860;9.188;2023-07-24T09:04:26;15.45;;;7.80;;
31818;SDS011;18384;48.860;9.188;2023-07-24T09:09:18;14.07;;;7.40;;
31818;SDS011;18384;48.860;9.188;2023-07-24T09:14:20;14.80;;;7.28;;
31818;SDS011;18384;48.860;9.188;2023-07-24T09:17:07;15.05;;;7.87;;
31818;SDS011;18384;48.860;9.188;2023-07-24T09:19:35;20.12;;;8.15;;
31818;SDS011;18384;48.860;9.188;2023-07-24T09:22:34;20.02;;;7.40;;
31818;SDS011;18384;48.860;9.188;2023-07-24T09:25:01;14.02;;;7.65;;
31818;SDS011;18384;48.860;9.188;2023-07-24T09:27:28;12.75;;;6.62;;
31818;SDS011;18384;48.860;9.188;2023-07-24T09:29:55;14.27;;;7.10;;
31818;SDS011;18384;48.860;9.188;2023-07-24T09:32:22;15.93;;;6.70;;
31818;SDS011;18384;48.860;9.188;2023-07-24T09:34:49;17.02;;;6.12;;
31818;SDS011;18384;48.860;9.188;2023-07-24T09:37:49;12.40;;;5.75;;
31818;SDS011;18384;48.860;9.188;2023-07-24T09:40:15;14.23;;;5.78;;
31818;SDS011;18384;48.860;9.188;2023-07-24T09:45:07;9.63;;;5.30;;
31818;SDS011;18384;48.860;9.188;2023-07-24T09:47:34;10.40;;;5.75;;
31818;SDS011;18384;48.860;9.188;2023-07-24T09:50:04;11.00;;;6.12;;
31818;SDS011;18384;48.860;9.188;2023-07-24T09:52:31;16.35;;;6.15;;
31818;SDS011;18384;48.860;9.188;2023-07-24T09:55:19;14.32;;;6.95;;
31818;SDS011;18384;48.860;9.188;2023-07-24T09:57:54;18.12;;;7.37;;
31818;SDS011;18384;48.860;9.188;2023-07-24T10:00:20;16.27;;;6.97;;
31818;SDS011;18384;48.860;9.188;2023-07-24T10:02:47;15.63;;;6.65;;
31818;SDS011;18384;48.860;9.188;2023-07-24T10:05:14;19.20;;;7.57;;
31818;SDS011;18384;48.860;9.188;2023-07-24T10:07:41;13.32;;;7.30;;
31818;SDS011;18384;48.860;9.188;2023-07-24T10:10:08;13.98;;;6.80;;
31818;SDS011;18384;48.860;9.188;2023-07-24T10:12:34;14.55;;;7.07;;
31818;SDS011;18384;48.860;9.188;2023-07-24T10:15:02;10.40;;;5.85;;
31818;SDS011;18384;48.860;9.188;2023-07-24T10:17:38;14.52;;;7.45;;
31818;SDS011;18384;48.860;9.188;2023-07-24T10:20:07;10.50;;;6.22;;
31818;SDS011;18384;48.860;9.188;2023-07-24T10:22:36;14.13;;;5.80;;
31818;SDS011;18384;48.860;9.188;2023-07-24T10:25:09;13.18;;;6.03;;
31818;SDS011;18384;48.860;9.188;2023-07-24T10:27:39;11.27;;;5.87;;
31818;SDS011;18384;48.860;9.188;2023-07-24T10:30:10;11.75;;;5.57;;
31818;SDS011;18384;48.860;9.188;2023-07-24T10:32:46;8.52;;;4.90;;
31818;SDS011;18384;48.860;9.188;2023-07-24T10:35:14;10.88;;;5.60;;
31818;SDS011;18384;48.860;9.188;2023-07-24T10:37:43;14.73;;;5.62;;
31818;SDS011;18384;48.860;9.188;2023-07-24T10:42:47;19.33;;;5.62;;
31818;SDS011;18384;48.860;9.188;2023-07-24T10:45:41;12.40;;;5.87;;
31818;SDS011;18384;48.860;9.188;2023-07-24T10:48:13;9.75;;;5.95;;
31818;SDS011;18384;48.860;9.188;2023-07-24T10:53:10;10.07;;;5.68;;
31818;SDS011;18384;48.860;9.188;2023-07-24T10:55:40;13.43;;;5.82;;
31818;SDS011;18384;48.860;9.188;2023-07-24T10:58:08;14.60;;;6.72;;
31818;SDS011;18384;48.860;9.188;2023-07-24T11:00:35;18.30;;;5.80;;
31818;SDS011;18384;48.860;9.188;2023-07-24T11:03:10;13.10;;;6.07;;
31818;SDS011;18384;48.860;9.188;2023-07-24T11:05:40;12.02;;;5.80;;
31818;SDS011;18384;48.860;9.188;2023-07-24T11:08:11;15.18;;;6.40;;
31818;SDS011;18384;48.860;9.188;2023-07-24T11:10:49;14.85;;;5.97;;
31818;SDS011;18384;48.860;9.188;2023-07-24T11:13:22;12.80;;;5.72;;
31818;SDS011;18384;48.860;9.188;2023-07-24T11:15:52;11.88;;;5.68;;
31818;SDS011;18384;48.860;9.188;2023-07-24T11:18:19;10.98;;;5.93;;
31818;SDS011;18384;48.860;9.188;2023-07-24T11:20:48;14.38;;;6.43;;
31818;SDS011;18384;48.860;9.188;2023-07-24T11:23:21;12.18;;;5.93;;
31818;SDS011;18384;48.860;9.188;2023-07-24T11:25:52;17.30;;;5.82;;
31818;SDS011;18384;48.860;9.188;2023-07-24T11:28:19;12.35;;;5.40;;
31818;SDS011;18384;48.860;9.188;2023-07-24T11:30:46;13.98;;;6.45;;
31818;SDS011;18384;48.860;9.188;2023-07-24T11:33:12;11.27;;;6.15;;
31818;SDS011;18384;48.860;9.188;2023-07-24T11:35:41;10.75;;;5.95;;
31818;SDS011;18384;48.860;9.188;2023-07-24T11:38:08;10.15;;;5.95;;
31818;SDS011;18384;48.860;9.188;2023-07-24T11:40:39;18.87;;;6.82;;
31818;SDS011;18384;48.860;9.188;2023-07-24T11:43:16;12.35;;;6.20;;
31818;SDS011;18384;48.860;9.188;2023-07-24T11:45:45;11.27;;;6.03;;
31818;SDS011;18384;48.860;9.188;2023-07-24T11:48:17;10.38;;;6.40;;
31818;SDS011;18384;48.860;9.188;2023-07-24T11:50:48;15.35;;;6.68;;
31818;SDS011;18384;48.860;9.188;2023-07-24T11:53:21;13.15;;;6.28;;
31818;SDS011;18384;48.860;9.188;2023-07-24T11:55:56;10.80;;;5.78;;
31818;SDS011;18384;48.860;9.188;2023-07-24T11:58:28;11.57;;;5.72;;
31818;SDS011;18384;48.860;9.188;2023-07-24T12:00:55;11.57;;;5.93;;
31818;SDS011;18384;48.860;9.188;2023-07-24T12:03:23;9.93;;;5.43;;
31818;SDS011;18384;48.860;9.188;2023-07-24T12:05:51;13.50;;;5.15;;
31818;SDS011;18384;48.860;9.188;2023-07-24T12:08:23;8.35;;;5.30;;
31818;SDS011;18384;48.860;9.188;2023-07-24T12:10:59;10.05;;;5.35;;
31818;SDS011;18384;48.860;9.188;2023-07-24T12:13:26;10.77;;;5.70;;
31818;SDS011;18384;48.860;9.188;2023-07-24T12:15:53;8.38;;;5.45;;
31818;SDS011;18384;48.860;9.188;2023-07-24T12:20:45;9.38;;;5.50;;
31818;SDS011;18384;48.860;9.188;2023-07-24T12:23:12;11.05;;;5.57;;
31818;SDS011;18384;48.860;9.188;2023-07-24T12:25:38;11.48;;;6.10;;
31818;SDS011;18384;48.860;9.188;2023-07-24T12:28:04;10.60;;;5.78;;
31818;SDS011;18384;48.860;9.188;2023-07-24T12:30:30;14.77;;;5.82;;
31818;SDS011;18384;48.860;9.188;2023-07-24T12:32:57;11.32;;;6.35;;
31818;SDS011;18384;48.860;9.188;2023-07-24T12:35:23;9.23;;;5.25;;
31818;SDS011;18384;48.860;9.188;2023-07-24T12:37:49;14.63;;;5.43;;
31818;SDS011;18384;48.860;9.188;2023-07-24T12:40:15;10.98;;;6.00;;
31818;SDS011;18384;48.860;9.188;2023-07-24T12:42:41;11.43;;;5.85;;
31818;SDS011;18384;48.860;9.188;2023-07-24T12:45:08;12.13;;;5.87;;
31818;SDS011;18384;48.860;9.188;2023-07-24T12:47:34;12.23;;;5.18;;
31818;SDS011;18384;48.860;9.188;2023-07-24T12:50:00;12.73;;;5.30;;
31818;SDS011;18384;48.860;9.188;2023-07-24T12:54:53;9.93;;;4.95;;
31818;SDS011;18384;48.860;9.188;2023-07-24T12:57:19;8.50;;;5.30;;
31818;SDS011;18384;48.860;9.188;2023-07-24T12:59:45;9.85;;;5.25;;
31818;SDS011;18384;48.860;9.188;2023-07-24T13:02:12;10.50;;;5.07;;
31818;SDS011;18384;48.860;9.188;2023-07-24T13:04:38;10.27;;;4.72;;
31818;SDS011;18384;48.860;9.188;2023-07-24T13:07:04;8.57;;;4.90;;
31818;SDS011;18384;48.860;9.188;2023-07-24T13:09:30;9.13;;;5.53;;
31818;SDS011;18384;48.860;9.188;2023-07-24T13:11:56;9.25;;;5.25;;
31818;SDS011;18384;48.860;9.188;2023-07-24T13:14:23;9.05;;;5.15;;
31818;SDS011;18384;48.860;9.188;2023-07-24T13:16:49;10.40;;;5.40;;
31818;SDS011;18384;48.860;9.188;2023-07-24T13:19:16;12.98;;;5.28;;
31818;SDS011;18384;48.860;9.188;2023-07-24T13:21:42;8.60;;;4.75;;
31818;SDS011;18384;48.860;9.188;2023-07-24T13:24:08;8.85;;;5.35;;
31818;SDS011;18384;48.860;9.188;2023-07-24T13:26:35;11.25;;;5.97;;
31818;SDS011;18384;48.860;9.188;2023-07-24T13:29:02;15.10;;;5.00;;
31818;SDS011;18384;48.860;9.188;2023-07-24T13:31:29;11.02;;;5.30;;
31818;SDS011;18384;48.860;9.188;2023-07-24T13:33:56;7.12;;;4.80;;
31818;SDS011;18384;48.860;9.188;2023-07-24T13:38:48;8.57;;;5.30;;
31818;SDS011;18384;48.860;9.188;2023-07-24T13:41:15;9.43;;;5.60;;
31818;SDS011;18384;48.860;9.188;2023-07-24T13:43:42;10.65;;;5.82;;
31818;SDS011;18384;48.860;9.188;2023-07-24T13:48:34;8.27;;;5.00;;
31818;SDS011;18384;48.860;9.188;2023-07-24T13:51:00;10.25;;;5.97;;
31818;SDS011;18384;48.860;9.188;2023-07-24T13:55:52;8.70;;;5.53;;
31818;SDS011;18384;48.860;9.188;2023-07-24T13:58:18;9.88;;;5.25;;
31818;SDS011;18384;48.860;9.188;2023-07-24T14:03:10;14.85;;;5.53;;
31818;SDS011;18384;48.860;9.188;2023-07-24T14:08:03;9.68;;;5.18;;
31818;SDS011;18384;48.860;9.188;2023-07-24T14:10:29;23.67;;;5.80;;
31818;SDS011;18384;48.860;9.188;2023-07-24T14:12:55;9.82;;;4.55;;
31818;SDS011;18384;48.860;9.188;2023-07-24T14:17:48;15.23;;;5.22;;
31818;SDS011;18384;48.860;9.188;2023-07-24T14:22:40;9.10;;;4.50;;
31818;SDS011;18384;48.860;9.188;2023-07-24T14:27:32;6.82;;;4.03;;
31818;SDS011;18384;48.860;9.188;2023-07-24T14:29:58;9.00;;;5.07;;
31818;SDS011;18384;48.860;9.188;2023-07-24T14:34:51;6.47;;;4.00;;
31818;SDS011;18384;48.860;9.188;2023-07-24T14:37:18;6.97;;;4.10;;
31818;SDS011;18384;48.860;9.188;2023-07-24T14:39:44;9.27;;;3.85;;
31818;SDS011;18384;48.860;9.188;2023-07-24T14:44:37;8.20;;;4.00;;
31818;SDS011;18384;48.860;9.188;2023-07-24T14:49:29;7.07;;;3.58;;
31818;SDS011;18384;48.860;9.188;2023-07-24T14:54:22;8.25;;;4.28;;
31818;SDS011;18384;48.860;9.188;2023-07-24T14:56:49;6.15;;;3.55;;
31818;SDS011;18384;48.860;9.188;2023-07-24T14:59:15;7.37;;;3.83;;
31818;SDS011;18384;48.860;9.188;2023-07-24T15:01:41;9.38;;;3.65;;
31818;SDS011;18384;48.860;9.188;2023-07-24T15:04:08;14.07;;;4.22;;
31818;SDS011;18384;48.860;9.188;2023-07-24T15:09:00;6.45;;;3.20;;
31818;SDS011;18384;48.860;9.188;2023-07-24T15:13:52;5.15;;;3.08;;
31818;SDS011;18384;48.860;9.188;2023-07-24T15:18:44;6.43;;;3.28;;
31818;SDS011;18384;48.860;9.188;2023-07-24T15:23:36;8.23;;;3.33;;
31818;SDS011;18384;48.860;9.188;2023-07-24T15:26:02;8.02;;;3.72;;
31818;SDS011;18384;48.860;9.188;2023-07-24T15:28:29;10.10;;;3.90;;
31818;SDS011;18384;48.860;9.188;2023-07-24T15:33:21;8.20;;;3.83;;
31818;SDS011;18384;48.860;9.188;2023-07-24T15:38:14;5.45;;;3.42;;
31818;SDS011;18384;48.860;9.188;2023-07-24T15:43:06;5.72;;;3.17;;
31818;SDS011;18384;48.860;9.188;2023-07-24T15:47:58;7.15;;;3.17;;
31818;SDS011;18384;48.860;9.188;2023-07-24T15:52:51;6.90;;;3.40;;
31818;SDS011;18384;48.860;9.188;2023-07-24T15:57:43;7.45;;;3.65;;
31818;SDS011;18384;48.860;9.188;2023-07-24T16:02:35;5.57;;;3.15;;
31818;SDS011;18384;48.860;9.188;2023-07-24T16:07:39;6.03;;;3.40;;
31818;SDS011;18384;48.860;9.188;2023-07-24T16:12:32;8.57;;;3.57;;
31818;SDS011;18384;48.860;9.188;2023-07-24T16:17:25;5.80;;;3.42;;
31818;SDS011;18384;48.860;9.188;2023-07-24T16:22:17;7.70;;;3.80;;
31818;SDS011;18384;48.860;9.188;2023-07-24T16:24:43;6.62;;;3.12;;
31818;SDS011;18384;48.860;9.188;2023-07-24T16:27:09;7.10;;;3.30;;
31818;SDS011;18384;48.860;9.188;2023-07-24T16:32:01;10.57;;;3.58;;
31818;SDS011;18384;48.860;9.188;2023-07-24T16:34:28;7.87;;;3.45;;
31818;SDS011;18384;48.860;9.188;2023-07-24T16:36:56;10.95;;;4.00;;
31818;SDS011;18384;48.860;9.188;2023-07-24T16:41:48;8.07;;;4.05;;
31818;SDS011;18384;48.860;9.188;2023-07-24T16:46:40;6.68;;;2.50;;
31818;SDS011;18384;48.860;9.188;2023-07-24T16:49:06;6.20;;;3.08;;